sensor_id;sensor_type;location;lat;lon;timestamp;P1;durP1;ratioP1;P2;durP2;ratioP2
41466;SDS011;27205;53.690;19.948;2022-11-22T00:02:23;35.20;;;32.60;;
41466;SDS011;27205;53.690;19.948;2022-11-22T00:07:27;37.20;;;34.30;;
41466;SDS011;27205;53.690;19.948;2022-11-22T00:12:30;37.40;;;34.50;;
41466;SDS011;27205;53.690;19.948;2022-11-22T00:17:34;34.00;;;31.40;;
41466;SDS011;27205;53.690;19.948;2022-11-22T00:22:38;40.20;;;37.00;;
41466;SDS011;27205;53.690;19.948;2022-11-22T00:27:46;39.10;;;36.10;;
41466;SDS011;27205;53.690;19.948;2022-11-22T00:32:50;43.20;;;39.60;;
41466;SDS011;27205;53.690;19.948;2022-11-22T00:37:53;41.50;;;38.10;;
41466;SDS011;27205;53.690;19.948;2022-11-22T00:42:57;42.00;;;38.50;;
41466;SDS011;27205;53.690;19.948;2022-11-22T00:48:00;31.70;;;29.10;;
41466;SDS011;27205;53.690;19.948;2022-11-22T00:53:04;31.10;;;28.40;;
41466;SDS011;27205;53.690;19.948;2022-11-22T00:58:07;29.80;;;27.20;;
41466;SDS011;27205;53.690;19.948;2022-11-22T01:03:11;34.70;;;31.80;;
41466;SDS011;27205;53.690;19.948;2022-11-22T01:13:19;43.80;;;39.80;;
41466;SDS011;27205;53.690;19.948;2022-11-22T01:18:22;42.90;;;39.30;;
41466;SDS011;27205;53.690;19.948;2022-11-22T01:23:26;35.10;;;32.20;;
41466;SDS011;27205;53.690;19.948;2022-11-22T01:28:29;42.90;;;39.40;;
41466;SDS011;27205;53.690;19.948;2022-11-22T01:33:33;47.20;;;43.20;;
41466;SDS011;27205;53.690;19.948;2022-11-22T01:38:36;43.80;;;39.90;;
41466;SDS011;27205;53.690;19.948;2022-11-22T01:43:40;35.70;;;32.60;;
41466;SDS011;27205;53.690;19.948;2022-11-22T01:53:51;46.40;;;42.30;;
41466;SDS011;27205;53.690;19.948;2022-11-22T01:58:59;45.10;;;41.20;;
41466;SDS011;27205;53.690;19.948;2022-11-22T02:04:05;48.70;;;44.50;;
41466;SDS011;27205;53.690;19.948;2022-11-22T02:09:12;46.00;;;42.00;;
41466;SDS011;27205;53.690;19.948;2022-11-22T02:14:21;48.00;;;43.80;;
41466;SDS011;27205;53.690;19.948;2022-11-22T02:24:56;51.00;;;46.70;;
41466;SDS011;27205;53.690;19.948;2022-11-22T02:30:05;49.50;;;45.10;;
41466;SDS011;27205;53.690;19.948;2022-11-22T02:35:17;48.40;;;44.10;;
41466;SDS011;27205;53.690;19.948;2022-11-22T02:40:25;47.90;;;43.60;;
41466;SDS011;27205;53.690;19.948;2022-11-22T02:45:33;40.40;;;36.50;;
41466;SDS011;27205;53.690;19.948;2022-11-22T02:50:36;50.20;;;45.70;;
41466;SDS011;27205;53.690;19.948;2022-11-22T02:55:40;50.30;;;45.70;;
41466;SDS011;27205;53.690;19.948;2022-11-22T03:00:43;52.40;;;47.50;;
41466;SDS011;27205;53.690;19.948;2022-11-22T03:05:47;50.10;;;45.40;;
41466;SDS011;27205;53.690;19.948;2022-11-22T03:10:51;50.70;;;45.70;;
41466;SDS011;27205;53.690;19.948;2022-11-22T03:15:54;55.00;;;49.80;;
41466;SDS011;27205;53.690;19.948;2022-11-22T03:21:02;53.70;;;48.40;;
41466;SDS011;27205;53.690;19.948;2022-11-22T03:26:09;52.00;;;46.90;;
41466;SDS011;27205;53.690;19.948;2022-11-22T03:31:14;52.60;;;47.40;;
41466;SDS011;27205;53.690;19.948;2022-11-22T03:36:17;54.50;;;49.20;;
41466;SDS011;27205;53.690;19.948;2022-11-22T03:41:21;51.50;;;46.30;;
41466;SDS011;27205;53.690;19.948;2022-11-22T03:46:24;40.50;;;36.70;;
41466;SDS011;27205;53.690;19.948;2022-11-22T03:51:28;54.60;;;49.30;;
41466;SDS011;27205;53.690;19.948;2022-11-22T03:56:31;52.10;;;47.10;;
41466;SDS011;27205;53.690;19.948;2022-11-22T04:01:35;40.80;;;36.90;;
41466;SDS011;27205;53.690;19.948;2022-11-22T04:06:38;49.80;;;45.10;;
41466;SDS011;27205;53.690;19.948;2022-11-22T04:11:42;41.70;;;37.70;;
41466;SDS011;27205;53.690;19.948;2022-11-22T04:16:45;50.30;;;45.50;;
41466;SDS011;27205;53.690;19.948;2022-11-22T04:21:49;52.10;;;47.20;;
41466;SDS011;27205;53.690;19.948;2022-11-22T04:26:52;48.50;;;44.00;;
41466;SDS011;27205;53.690;19.948;2022-11-22T04:31:56;48.50;;;43.90;;
41466;SDS011;27205;53.690;19.948;2022-11-22T04:37:32;48.90;;;44.50;;
41466;SDS011;27205;53.690;19.948;2022-11-22T04:42:35;48.60;;;44.00;;
41466;SDS011;27205;53.690;19.948;2022-11-22T04:47:57;47.10;;;42.80;;
41466;SDS011;27205;53.690;19.948;2022-11-22T04:53:01;49.60;;;45.00;;
41466;SDS011;27205;53.690;19.948;2022-11-22T04:58:04;50.10;;;45.60;;
41466;SDS011;27205;53.690;19.948;2022-11-22T05:03:08;50.50;;;45.80;;
41466;SDS011;27205;53.690;19.948;2022-11-22T05:08:12;47.20;;;42.80;;
41466;SDS011;27205;53.690;19.948;2022-11-22T05:13:16;48.20;;;43.70;;
41466;SDS011;27205;53.690;19.948;2022-11-22T05:18:21;49.70;;;44.90;;
41466;SDS011;27205;53.690;19.948;2022-11-22T05:28:47;48.70;;;44.20;;
41466;SDS011;27205;53.690;19.948;2022-11-22T05:33:51;52.80;;;48.10;;
41466;SDS011;27205;53.690;19.948;2022-11-22T05:38:55;50.70;;;45.80;;
41466;SDS011;27205;53.690;19.948;2022-11-22T05:43:59;53.70;;;48.40;;
41466;SDS011;27205;53.690;19.948;2022-11-22T05:49:02;54.60;;;49.30;;
41466;SDS011;27205;53.690;19.948;2022-11-22T05:54:06;39.60;;;35.80;;
41466;SDS011;27205;53.690;19.948;2022-11-22T05:59:09;50.90;;;46.00;;
41466;SDS011;27205;53.690;19.948;2022-11-22T06:04:13;52.50;;;47.30;;
41466;SDS011;27205;53.690;19.948;2022-11-22T06:09:16;51.90;;;46.80;;
41466;SDS011;27205;53.690;19.948;2022-11-22T06:14:20;55.30;;;50.10;;
41466;SDS011;27205;53.690;19.948;2022-11-22T06:19:23;51.00;;;46.10;;
41466;SDS011;27205;53.690;19.948;2022-11-22T06:24:27;53.20;;;48.00;;
41466;SDS011;27205;53.690;19.948;2022-11-22T06:29:30;57.50;;;52.10;;
41466;SDS011;27205;53.690;19.948;2022-11-22T06:34:34;55.20;;;49.80;;
41466;SDS011;27205;53.690;19.948;2022-11-22T06:39:38;53.30;;;48.00;;
41466;SDS011;27205;53.690;19.948;2022-11-22T06:44:41;42.60;;;38.50;;
41466;SDS011;27205;53.690;19.948;2022-11-22T06:49:45;50.60;;;45.80;;
41466;SDS011;27205;53.690;19.948;2022-11-22T06:54:48;51.10;;;46.40;;
41466;SDS011;27205;53.690;19.948;2022-11-22T06:59:52;48.90;;;44.20;;
41466;SDS011;27205;53.690;19.948;2022-11-22T07:04:55;47.40;;;42.90;;
41466;SDS011;27205;53.690;19.948;2022-11-22T07:10:18;45.70;;;41.20;;
41466;SDS011;27205;53.690;19.948;2022-11-22T07:15:22;49.00;;;44.20;;
41466;SDS011;27205;53.690;19.948;2022-11-22T07:20:25;44.80;;;40.60;;
41466;SDS011;27205;53.690;19.948;2022-11-22T07:25:29;49.60;;;44.70;;
41466;SDS011;27205;53.690;19.948;2022-11-22T07:30:32;49.10;;;44.50;;
41466;SDS011;27205;53.690;19.948;2022-11-22T07:35:36;47.80;;;43.40;;
41466;SDS011;27205;53.690;19.948;2022-11-22T07:40:39;45.20;;;41.00;;
41466;SDS011;27205;53.690;19.948;2022-11-22T07:45:43;44.80;;;40.70;;
41466;SDS011;27205;53.690;19.948;2022-11-22T07:50:46;49.60;;;45.20;;
41466;SDS011;27205;53.690;19.948;2022-11-22T07:55:50;46.10;;;42.00;;
41466;SDS011;27205;53.690;19.948;2022-11-22T08:00:53;45.70;;;41.40;;
41466;SDS011;27205;53.690;19.948;2022-11-22T08:06:00;47.30;;;43.00;;
41466;SDS011;27205;53.690;19.948;2022-11-22T08:11:05;48.70;;;44.10;;
41466;SDS011;27205;53.690;19.948;2022-11-22T08:16:10;46.30;;;42.10;;
41466;SDS011;27205;53.690;19.948;2022-11-22T08:21:16;50.50;;;45.70;;
41466;SDS011;27205;53.690;19.948;2022-11-22T08:26:20;47.40;;;43.10;;
41466;SDS011;27205;53.690;19.948;2022-11-22T08:31:24;47.30;;;42.80;;
41466;SDS011;27205;53.690;19.948;2022-11-22T08:36:29;48.10;;;43.40;;
41466;SDS011;27205;53.690;19.948;2022-11-22T08:41:32;47.70;;;43.30;;
41466;SDS011;27205;53.690;19.948;2022-11-22T08:46:36;43.20;;;39.30;;
41466;SDS011;27205;53.690;19.948;2022-11-22T08:51:39;44.00;;;39.90;;
41466;SDS011;27205;53.690;19.948;2022-11-22T08:56:47;46.30;;;42.00;;
41466;SDS011;27205;53.690;19.948;2022-11-22T09:01:50;46.20;;;42.00;;
41466;SDS011;27205;53.690;19.948;2022-11-22T09:06:54;43.10;;;39.20;;
41466;SDS011;27205;53.690;19.948;2022-11-22T09:12:18;47.10;;;42.80;;
41466;SDS011;27205;53.690;19.948;2022-11-22T09:17:21;45.40;;;41.20;;
41466;SDS011;27205;53.690;19.948;2022-11-22T09:22:25;38.90;;;35.50;;
41466;SDS011;27205;53.690;19.948;2022-11-22T09:27:31;39.20;;;35.80;;
41466;SDS011;27205;53.690;19.948;2022-11-22T09:32:35;42.60;;;38.80;;
41466;SDS011;27205;53.690;19.948;2022-11-22T09:37:39;39.20;;;35.80;;
41466;SDS011;27205;53.690;19.948;2022-11-22T09:58:53;39.00;;;35.60;;
41466;SDS011;27205;53.690;19.948;2022-11-22T10:04:05;37.60;;;34.30;;
41466;SDS011;27205;53.690;19.948;2022-11-22T10:25:38;35.50;;;32.40;;
41466;SDS011;27205;53.690;19.948;2022-11-22T10:30:47;35.00;;;32.10;;
41466;SDS011;27205;53.690;19.948;2022-11-22T10:47:27;34.50;;;31.70;;
41466;SDS011;27205;53.690;19.948;2022-11-22T11:08:39;28.00;;;25.60;;
41466;SDS011;27205;53.690;19.948;2022-11-22T11:14:26;28.80;;;26.40;;
41466;SDS011;27205;53.690;19.948;2022-11-22T11:19:37;31.00;;;28.10;;
41466;SDS011;27205;53.690;19.948;2022-11-22T11:24:43;28.80;;;26.50;;
41466;SDS011;27205;53.690;19.948;2022-11-22T11:30:09;28.60;;;26.20;;
41466;SDS011;27205;53.690;19.948;2022-11-22T11:35:13;30.20;;;27.60;;
41466;SDS011;27205;53.690;19.948;2022-11-22T11:40:28;30.90;;;28.30;;
41466;SDS011;27205;53.690;19.948;2022-11-22T11:45:33;30.30;;;27.80;;
41466;SDS011;27205;53.690;19.948;2022-11-22T11:50:37;23.60;;;21.70;;
41466;SDS011;27205;53.690;19.948;2022-11-22T11:55:41;31.30;;;28.80;;
41466;SDS011;27205;53.690;19.948;2022-11-22T12:00:44;29.40;;;26.90;;
41466;SDS011;27205;53.690;19.948;2022-11-22T12:05:49;31.90;;;29.20;;
41466;SDS011;27205;53.690;19.948;2022-11-22T12:11:18;29.90;;;27.40;;
41466;SDS011;27205;53.690;19.948;2022-11-22T12:17:02;27.00;;;24.70;;
41466;SDS011;27205;53.690;19.948;2022-11-22T12:22:20;29.30;;;26.80;;
41466;SDS011;27205;53.690;19.948;2022-11-22T12:27:50;29.00;;;26.50;;
41466;SDS011;27205;53.690;19.948;2022-11-22T12:32:56;29.80;;;27.30;;
41466;SDS011;27205;53.690;19.948;2022-11-22T12:38:09;29.10;;;26.70;;
41466;SDS011;27205;53.690;19.948;2022-11-22T12:43:20;30.30;;;27.50;;
41466;SDS011;27205;53.690;19.948;2022-11-22T12:48:29;28.70;;;26.20;;
41466;SDS011;27205;53.690;19.948;2022-11-22T12:53:40;28.00;;;25.50;;
41466;SDS011;27205;53.690;19.948;2022-11-22T12:58:48;26.90;;;24.50;;
41466;SDS011;27205;53.690;19.948;2022-11-22T13:04:12;26.50;;;24.30;;
41466;SDS011;27205;53.690;19.948;2022-11-22T13:09:32;24.50;;;22.40;;
41466;SDS011;27205;53.690;19.948;2022-11-22T13:14:41;22.50;;;20.60;;
41466;SDS011;27205;53.690;19.948;2022-11-22T13:19:50;22.20;;;20.30;;
41466;SDS011;27205;53.690;19.948;2022-11-22T13:30:20;19.80;;;18.20;;
41466;SDS011;27205;53.690;19.948;2022-11-22T13:40:45;20.80;;;19.10;;
41466;SDS011;27205;53.690;19.948;2022-11-22T13:45:58;21.00;;;19.30;;
41466;SDS011;27205;53.690;19.948;2022-11-22T13:51:07;23.10;;;21.20;;
41466;SDS011;27205;53.690;19.948;2022-11-22T14:06:36;25.80;;;23.60;;
41466;SDS011;27205;53.690;19.948;2022-11-22T14:17:19;26.00;;;23.70;;
41466;SDS011;27205;53.690;19.948;2022-11-22T14:22:48;27.20;;;24.90;;
41466;SDS011;27205;53.690;19.948;2022-11-22T14:28:10;29.40;;;26.80;;
41466;SDS011;27205;53.690;19.948;2022-11-22T14:33:24;30.60;;;27.70;;
41466;SDS011;27205;53.690;19.948;2022-11-22T14:38:31;28.30;;;25.80;;
41466;SDS011;27205;53.690;19.948;2022-11-22T14:43:38;33.50;;;30.40;;
41466;SDS011;27205;53.690;19.948;2022-11-22T14:48:48;28.80;;;26.20;;
41466;SDS011;27205;53.690;19.948;2022-11-22T14:53:59;31.00;;;28.20;;
41466;SDS011;27205;53.690;19.948;2022-11-22T15:16:01;34.90;;;31.60;;
41466;SDS011;27205;53.690;19.948;2022-11-22T15:21:35;38.40;;;34.60;;
41466;SDS011;27205;53.690;19.948;2022-11-22T15:27:08;36.00;;;32.30;;
41466;SDS011;27205;53.690;19.948;2022-11-22T15:32:52;38.60;;;34.90;;
41466;SDS011;27205;53.690;19.948;2022-11-22T15:38:16;32.40;;;29.40;;
41466;SDS011;27205;53.690;19.948;2022-11-22T15:43:41;44.50;;;40.30;;
41466;SDS011;27205;53.690;19.948;2022-11-22T15:49:08;42.40;;;38.40;;
41466;SDS011;27205;53.690;19.948;2022-11-22T15:54:37;40.20;;;36.40;;
41466;SDS011;27205;53.690;19.948;2022-11-22T16:00:07;37.10;;;33.50;;
41466;SDS011;27205;53.690;19.948;2022-11-22T16:05:12;39.10;;;35.30;;
41466;SDS011;27205;53.690;19.948;2022-11-22T16:10:37;37.20;;;33.70;;
41466;SDS011;27205;53.690;19.948;2022-11-22T16:15:44;38.00;;;34.50;;
41466;SDS011;27205;53.690;19.948;2022-11-22T16:26:19;38.10;;;34.70;;
41466;SDS011;27205;53.690;19.948;2022-11-22T16:31:30;36.30;;;33.10;;
41466;SDS011;27205;53.690;19.948;2022-11-22T16:36:34;32.10;;;29.20;;
41466;SDS011;27205;53.690;19.948;2022-11-22T16:41:37;33.90;;;30.90;;
41466;SDS011;27205;53.690;19.948;2022-11-22T16:46:41;30.30;;;27.60;;
41466;SDS011;27205;53.690;19.948;2022-11-22T16:51:47;28.00;;;25.60;;
41466;SDS011;27205;53.690;19.948;2022-11-22T16:56:53;26.10;;;23.70;;
41466;SDS011;27205;53.690;19.948;2022-11-22T17:01:57;23.00;;;21.00;;
41466;SDS011;27205;53.690;19.948;2022-11-22T17:07:01;23.00;;;21.00;;
41466;SDS011;27205;53.690;19.948;2022-11-22T17:12:10;22.90;;;20.90;;
41466;SDS011;27205;53.690;19.948;2022-11-22T17:17:16;20.20;;;18.50;;
41466;SDS011;27205;53.690;19.948;2022-11-22T17:22:21;18.70;;;17.20;;
41466;SDS011;27205;53.690;19.948;2022-11-22T17:27:25;19.90;;;18.20;;
41466;SDS011;27205;53.690;19.948;2022-11-22T17:32:28;19.60;;;18.00;;
41466;SDS011;27205;53.690;19.948;2022-11-22T17:37:32;23.40;;;21.50;;
41466;SDS011;27205;53.690;19.948;2022-11-22T17:42:35;21.40;;;19.70;;
41466;SDS011;27205;53.690;19.948;2022-11-22T17:47:43;20.10;;;18.50;;
41466;SDS011;27205;53.690;19.948;2022-11-22T17:52:47;19.90;;;18.30;;
41466;SDS011;27205;53.690;19.948;2022-11-22T17:57:51;19.70;;;18.10;;
41466;SDS011;27205;53.690;19.948;2022-11-22T18:02:57;23.00;;;21.10;;
41466;SDS011;27205;53.690;19.948;2022-11-22T18:08:08;22.40;;;20.60;;
41466;SDS011;27205;53.690;19.948;2022-11-22T18:13:12;21.60;;;19.90;;
41466;SDS011;27205;53.690;19.948;2022-11-22T18:18:23;23.40;;;21.50;;
41466;SDS011;27205;53.690;19.948;2022-11-22T18:23:47;13.50;;;12.40;;
41466;SDS011;27205;53.690;19.948;2022-11-22T18:28:50;24.30;;;22.30;;
41466;SDS011;27205;53.690;19.948;2022-11-22T18:34:14;19.70;;;18.10;;
41466;SDS011;27205;53.690;19.948;2022-11-22T18:39:18;22.70;;;20.90;;
41466;SDS011;27205;53.690;19.948;2022-11-22T18:44:24;21.10;;;19.40;;
41466;SDS011;27205;53.690;19.948;2022-11-22T18:49:27;20.60;;;19.00;;
41466;SDS011;27205;53.690;19.948;2022-11-22T18:54:32;17.70;;;16.40;;
41466;SDS011;27205;53.690;19.948;2022-11-22T18:59:35;14.70;;;13.60;;
41466;SDS011;27205;53.690;19.948;2022-11-22T19:04:39;17.80;;;16.50;;
41466;SDS011;27205;53.690;19.948;2022-11-22T19:09:43;19.40;;;17.90;;
41466;SDS011;27205;53.690;19.948;2022-11-22T19:14:46;20.40;;;18.70;;
41466;SDS011;27205;53.690;19.948;2022-11-22T19:19:49;18.70;;;17.30;;
41466;SDS011;27205;53.690;19.948;2022-11-22T19:25:00;21.00;;;19.40;;
41466;SDS011;27205;53.690;19.948;2022-11-22T19:30:04;23.50;;;21.60;;
41466;SDS011;27205;53.690;19.948;2022-11-22T19:35:08;18.40;;;17.00;;
41466;SDS011;27205;53.690;19.948;2022-11-22T19:40:12;20.60;;;19.00;;
41466;SDS011;27205;53.690;19.948;2022-11-22T19:45:16;21.50;;;19.90;;
41466;SDS011;27205;53.690;19.948;2022-11-22T19:50:19;20.60;;;18.90;;
41466;SDS011;27205;53.690;19.948;2022-11-22T19:55:23;20.10;;;18.50;;
41466;SDS011;27205;53.690;19.948;2022-11-22T20:00:26;19.40;;;18.00;;
41466;SDS011;27205;53.690;19.948;2022-11-22T20:05:30;19.30;;;17.90;;
41466;SDS011;27205;53.690;19.948;2022-11-22T20:10:34;22.20;;;20.40;;
41466;SDS011;27205;53.690;19.948;2022-11-22T20:15:40;22.70;;;21.00;;
41466;SDS011;27205;53.690;19.948;2022-11-22T20:20:43;20.40;;;18.80;;
41466;SDS011;27205;53.690;19.948;2022-11-22T20:25:47;21.20;;;19.60;;
41466;SDS011;27205;53.690;19.948;2022-11-22T20:30:50;20.10;;;18.50;;
41466;SDS011;27205;53.690;19.948;2022-11-22T20:35:59;20.00;;;18.50;;
41466;SDS011;27205;53.690;19.948;2022-11-22T20:41:06;19.80;;;18.20;;
41466;SDS011;27205;53.690;19.948;2022-11-22T20:46:13;18.00;;;16.60;;
41466;SDS011;27205;53.690;19.948;2022-11-22T20:51:22;21.20;;;19.50;;
41466;SDS011;27205;53.690;19.948;2022-11-22T20:56:27;20.00;;;18.30;;
41466;SDS011;27205;53.690;19.948;2022-11-22T21:01:31;18.70;;;17.20;;
41466;SDS011;27205;53.690;19.948;2022-11-22T21:06:35;19.80;;;18.20;;
41466;SDS011;27205;53.690;19.948;2022-11-22T21:11:39;19.90;;;18.30;;
41466;SDS011;27205;53.690;19.948;2022-11-22T21:16:45;22.40;;;20.60;;
41466;SDS011;27205;53.690;19.948;2022-11-22T21:21:49;19.50;;;17.90;;
41466;SDS011;27205;53.690;19.948;2022-11-22T21:26:52;17.70;;;16.30;;
41466;SDS011;27205;53.690;19.948;2022-11-22T21:31:56;21.30;;;19.60;;
41466;SDS011;27205;53.690;19.948;2022-11-22T21:36:59;21.60;;;19.80;;
41466;SDS011;27205;53.690;19.948;2022-11-22T21:42:03;14.70;;;13.50;;
41466;SDS011;27205;53.690;19.948;2022-11-22T21:47:06;18.80;;;17.40;;
41466;SDS011;27205;53.690;19.948;2022-11-22T21:52:10;20.30;;;18.70;;
41466;SDS011;27205;53.690;19.948;2022-11-22T21:57:13;23.50;;;21.60;;
41466;SDS011;27205;53.690;19.948;2022-11-22T22:02:17;23.00;;;21.10;;
41466;SDS011;27205;53.690;19.948;2022-11-22T22:07:20;15.60;;;14.40;;
41466;SDS011;27205;53.690;19.948;2022-11-22T22:12:44;22.30;;;20.50;;
41466;SDS011;27205;53.690;19.948;2022-11-22T22:17:48;23.10;;;21.20;;
41466;SDS011;27205;53.690;19.948;2022-11-22T22:22:55;22.20;;;20.40;;
41466;SDS011;27205;53.690;19.948;2022-11-22T22:27:59;24.00;;;22.10;;
41466;SDS011;27205;53.690;19.948;2022-11-22T22:33:02;23.30;;;21.30;;
41466;SDS011;27205;53.690;19.948;2022-11-22T22:38:06;22.00;;;20.30;;
41466;SDS011;27205;53.690;19.948;2022-11-22T22:43:09;21.50;;;19.70;;
41466;SDS011;27205;53.690;19.948;2022-11-22T22:48:13;19.20;;;17.50;;
41466;SDS011;27205;53.690;19.948;2022-11-22T22:53:16;14.50;;;13.30;;
41466;SDS011;27205;53.690;19.948;2022-11-22T22:58:20;18.80;;;17.20;;
41466;SDS011;27205;53.690;19.948;2022-11-22T23:03:23;20.60;;;18.90;;
41466;SDS011;27205;53.690;19.948;2022-11-22T23:08:27;20.30;;;18.60;;
41466;SDS011;27205;53.690;19.948;2022-11-22T23:13:30;14.50;;;13.30;;
41466;SDS011;27205;53.690;19.948;2022-11-22T23:18:39;19.00;;;17.40;;
41466;SDS011;27205;53.690;19.948;2022-11-22T23:23:45;19.40;;;17.70;;
41466;SDS011;27205;53.690;19.948;2022-11-22T23:28:48;18.60;;;17.10;;
41466;SDS011;27205;53.690;19.948;2022-11-22T23:33:53;16.60;;;15.30;;
41466;SDS011;27205;53.690;19.948;2022-11-22T23:38:56;13.70;;;12.60;;
41466;SDS011;27205;53.690;19.948;2022-11-22T23:43:59;16.70;;;15.30;;
41466;SDS011;27205;53.690;19.948;2022-11-22T23:49:03;19.10;;;17.60;;
41466;SDS011;27205;53.690;19.948;2022-11-22T23:59:12;18.10;;;16.50;;
